LIPL/QBS METAR and TAF weather

Enter ICAO airport designator
Station Type Date Time Source
LIPL METAR 2020/01/21 08:55 UTC NOAA

LIPL 210855Z 33004KT CAVOK 01/M00 Q1042 RMK SCT SCT200 VIS MIN 9999 WIND THR31 /////KT WIND THR13 31004KT BLU


Station Type Date Time Source
LIPL Decoded METAR 2020/01/21 08:55 UTC NOAA

Brescia / Ghedi, Italy (LIPL) 45-25N 010-17E 97M
Jan 21, 2020 - 03:55 AM EST / 2020.01.21 0855 UTC
Wind: from the NNW (330 degrees) at 5 MPH (4 KT):0
Visibility: greater than 7 mile(s):0
Temperature: 33 F (1 C)
Windchill: 28 F (-2 C):1
Dew Point: 32 F (0 C)
Relative Humidity: 93%
Pressure (altimeter): 30.77 in. Hg (1042 hPa)
ob: LIPL 210855Z 33004KT CAVOK 01/M00 Q1042 RMK SCT SCT200 VIS MIN 9999 WIND THR31 /////KT WIND THR13 31004KT BLU
cycle: 9

Station Type Date Time Source
LIPL TAF 2019/07/15 15:33 UTC NOAA

TAF TAF LIPL 151400Z 1515/1603 VRB03KT 9999 SCT040

Example: see airport list